Aviation Digital Data Service (ADDS)

Output produced by METARs form (2214 UTC 10 December 2016)
found at http://aviationweather.gov/adds/metars/
 
KAEX 102153Z 11004KT 10SM CLR 12/M08 A3037 RMK AO2 SLP290 T01171083